Time;durP1;ratioP1;P1;durP2;ratioP2;P2;SDS_P1;SDS_P2;PMS_P1;PMS_P2;Temp;Humidity;BMP_temperature;BMP_pressure;BME280_temperature;BME280_humidity;BME280_pressure;Samples;Min_cycle;Max_cycle;Signal;HPM_P1;HPM_P2
2021/07/30 00:00:36;;;;;;;21.03;5.90;;;;;;;;;;5030293;28;20468;-48
2021/07/30 00:03:05;;;;;;;4.60;4.20;;;;;;;;;;5030731;28;20438;-48
2021/07/30 00:05:34;;;;;;;7.97;4.40;;;;;;;;;;5030571;28;20439;-48
2021/07/30 00:08:00;;;;;;;6.97;4.70;;;;;;;;;;5030628;28;20873;-49
2021/07/30 00:10:26;;;;;;;6.17;4.40;;;;;;;;;;5030125;28;20423;-49
2021/07/30 00:12:55;;;;;;;13.20;4.50;;;;;;;;;;5030495;28;20440;-48
2021/07/30 00:15:22;;;;;;;11.17;5.10;;;;;;;;;;5030666;28;20382;-48
2021/07/30 00:17:48;;;;;;;7.00;4.20;;;;;;;;;;5030592;28;20377;-48
2021/07/30 00:20:17;;;;;;;8.57;5.43;;;;;;;;;;5030188;28;20430;-48
2021/07/30 00:22:43;;;;;;;7.50;4.43;;;;;;;;;;5030365;28;20408;-48
2021/07/30 00:25:09;;;;;;;11.77;4.70;;;;;;;;;;5030380;28;20469;-48
2021/07/30 00:27:35;;;;;;;8.43;4.10;;;;;;;;;;5030660;28;20536;-48
2021/07/30 00:30:04;;;;;;;9.00;4.50;;;;;;;;;;5029979;28;20913;-48
2021/07/30 00:32:30;;;;;;;9.60;4.97;;;;;;;;;;5030411;28;20406;-48
2021/07/30 00:34:56;;;;;;;6.83;4.70;;;;;;;;;;5030395;28;20377;-49
2021/07/30 00:37:22;;;;;;;8.60;4.73;;;;;;;;;;5030303;28;20398;-48
2021/07/30 00:39:48;;;;;;;12.03;4.40;;;;;;;;;;5029937;28;20841;-48
2021/07/30 00:42:17;;;;;;;5.20;4.70;;;;;;;;;;5030230;28;20406;-49
2021/07/30 00:44:43;;;;;;;6.03;4.77;;;;;;;;;;5030146;28;20403;-48
2021/07/30 00:47:09;;;;;;;7.40;4.20;;;;;;;;;;5030185;28;20382;-48
2021/07/30 00:49:38;;;;;;;7.30;4.47;;;;;;;;;;5030098;28;20494;-48
2021/07/30 00:52:04;;;;;;;10.80;5.23;;;;;;;;;;5029954;28;20392;-48
2021/07/30 00:54:30;;;;;;;6.50;4.73;;;;;;;;;;5030077;28;20912;-48
2021/07/30 00:56:56;;;;;;;13.13;4.40;;;;;;;;;;5031156;28;20480;-49
2021/07/30 00:59:23;;;;;;;8.03;4.87;;;;;;;;;;5033999;28;20456;-48
2021/07/30 01:01:50;;;;;;;8.03;5.03;;;;;;;;;;5032996;28;20458;-48
2021/07/30 01:04:15;;;;;;;13.80;7.53;;;;;;;;;;5033129;28;20493;-48
2021/07/30 01:06:42;;;;;;;6.67;4.97;;;;;;;;;;5033129;28;20822;-48
2021/07/30 01:09:08;;;;;;;8.33;4.70;;;;;;;;;;5033493;28;20376;-48
2021/07/30 01:11:34;;;;;;;11.10;4.90;;;;;;;;;;5033585;28;20400;-48
2021/07/30 01:14:00;;;;;;;6.03;4.50;;;;;;;;;;5033566;28;20382;-48
2021/07/30 01:16:26;;;;;;;4.97;4.47;;;;;;;;;;5033562;28;20411;-48
2021/07/30 01:18:52;;;;;;;6.47;4.93;;;;;;;;;;5033458;28;20464;-48
2021/07/30 01:21:22;;;;;;;12.80;5.83;;;;;;;;;;5033500;28;21173;-48
2021/07/30 01:23:48;;;;;;;7.43;5.50;;;;;;;;;;5032971;28;20402;-48
2021/07/30 01:26:15;;;;;;;7.93;5.30;;;;;;;;;;5033386;28;20464;-49
2021/07/30 01:28:41;;;;;;;15.00;9.07;;;;;;;;;;5033359;28;20687;-48
2021/07/30 01:31:07;;;;;;;6.23;5.57;;;;;;;;;;5032985;28;20415;-49
2021/07/30 01:33:36;;;;;;;11.17;4.60;;;;;;;;;;5033182;28;20389;-49
2021/07/30 01:36:02;;;;;;;7.63;5.23;;;;;;;;;;5033124;28;20410;-48
2021/07/30 01:38:28;;;;;;;10.83;5.80;;;;;;;;;;5033144;28;20796;-48
2021/07/30 01:41:08;;;;;;;5.87;3.90;;;;;;;;;;5033320;28;21016;-49
2021/07/30 01:43:38;;;;;;;8.03;6.63;;;;;;;;;;5033100;28;20409;-48
2021/07/30 01:46:04;;;;;;;7.07;4.40;;;;;;;;;;5032833;28;20440;-48
2021/07/30 01:48:30;;;;;;;15.07;6.13;;;;;;;;;;5032768;28;20403;-48
2021/07/30 01:50:59;;;;;;;5.73;5.10;;;;;;;;;;5032651;28;20433;-48
2021/07/30 01:53:25;;;;;;;5.70;4.47;;;;;;;;;;5033145;28;20412;-48
2021/07/30 01:55:51;;;;;;;5.67;3.83;;;;;;;;;;5033060;28;20408;-48
2021/07/30 01:58:17;;;;;;;10.50;5.03;;;;;;;;;;5033068;28;20408;-49
2021/07/30 02:00:43;;;;;;;9.00;4.40;;;;;;;;;;5032534;28;20867;-48
2021/07/30 02:03:09;;;;;;;9.30;4.40;;;;;;;;;;5032745;28;20789;-48
2021/07/30 02:05:37;;;;;;;6.03;5.03;;;;;;;;;;5032600;28;20934;-48
2021/07/30 02:08:03;;;;;;;9.60;4.60;;;;;;;;;;5031922;28;20411;-49
2021/07/30 02:10:32;;;;;;;10.23;6.73;;;;;;;;;;5032071;28;20431;-49
2021/07/30 02:15:43;;;;;;;9.67;4.50;;;;;;;;;;5032561;28;20989;-48
2021/07/30 02:18:09;;;;;;;6.23;3.90;;;;;;;;;;5032345;28;20403;-48
2021/07/30 02:20:35;;;;;;;6.73;3.70;;;;;;;;;;5031995;28;20424;-48
2021/07/30 02:23:01;;;;;;;13.77;5.33;;;;;;;;;;5032205;28;20408;-48
2021/07/30 02:25:30;;;;;;;9.17;4.40;;;;;;;;;;5032142;28;21085;-49
2021/07/30 02:27:56;;;;;;;7.23;4.80;;;;;;;;;;5032043;28;20378;-49
2021/07/30 02:30:22;;;;;;;7.10;4.30;;;;;;;;;;5031786;28;20775;-48
2021/07/30 02:32:48;;;;;;;9.30;4.67;;;;;;;;;;5032035;28;20773;-50
2021/07/30 02:35:14;;;;;;;8.87;4.30;;;;;;;;;;5031915;28;20785;-49
2021/07/30 02:37:40;;;;;;;7.53;4.20;;;;;;;;;;5031998;28;20759;-49
2021/07/30 02:40:06;;;;;;;12.43;4.23;;;;;;;;;;5031541;28;20819;-49
2021/07/30 02:42:35;;;;;;;7.23;4.30;;;;;;;;;;5031821;28;20413;-48
2021/07/30 02:45:01;;;;;;;6.00;4.27;;;;;;;;;;5031609;28;20446;-48
2021/07/30 02:47:27;;;;;;;6.50;4.30;;;;;;;;;;5031756;28;20370;-49
2021/07/30 02:49:53;;;;;;;8.13;4.10;;;;;;;;;;5031243;28;20385;-49
2021/07/30 02:52:18;;;;;;;5.10;4.50;;;;;;;;;;5031581;28;20469;-48
2021/07/30 02:54:44;;;;;;;7.50;4.50;;;;;;;;;;5031624;28;20397;-48
2021/07/30 02:57:10;;;;;;;6.27;4.70;;;;;;;;;;5031770;28;20441;-48
2021/07/30 02:59:36;;;;;;;11.03;4.90;;;;;;;;;;5031355;28;20426;-48
2021/07/30 03:02:02;;;;;;;7.70;6.13;;;;;;;;;;5031313;28;20951;-48
2021/07/30 03:04:28;;;;;;;8.60;5.50;;;;;;;;;;5031551;28;20773;-48
2021/07/30 03:06:57;;;;;;;7.07;4.80;;;;;;;;;;5031374;28;20455;-48
2021/07/30 03:09:23;;;;;;;6.37;4.70;;;;;;;;;;5031523;28;20938;-48
2021/07/30 03:11:49;;;;;;;8.70;4.73;;;;;;;;;;5030976;28;20405;-48
2021/07/30 03:14:15;;;;;;;8.27;3.97;;;;;;;;;;5031289;28;20855;-48
2021/07/30 03:16:41;;;;;;;5.37;4.23;;;;;;;;;;5031267;28;20374;-48
2021/07/30 03:19:07;;;;;;;13.23;6.40;;;;;;;;;;5031077;28;20745;-48
2021/07/30 03:21:33;;;;;;;9.73;4.37;;;;;;;;;;5030749;28;20767;-48
2021/07/30 03:23:59;;;;;;;7.80;5.00;;;;;;;;;;5031041;28;20915;-48
2021/07/30 03:26:24;;;;;;;10.23;5.60;;;;;;;;;;5030940;28;21011;-48
2021/07/30 03:28:50;;;;;;;7.10;4.73;;;;;;;;;;5031077;28;20922;-48
2021/07/30 03:31:17;;;;;;;10.77;5.10;;;;;;;;;;5030728;28;20401;-49
2021/07/30 03:33:43;;;;;;;6.93;4.27;;;;;;;;;;5030783;28;20804;-48
2021/07/30 03:36:09;;;;;;;10.80;5.27;;;;;;;;;;5030881;28;20503;-49
2021/07/30 03:38:35;;;;;;;7.83;4.60;;;;;;;;;;5030977;28;20831;-48
2021/07/30 03:41:04;;;;;;;9.37;5.17;;;;;;;;;;5030574;28;20413;-48
2021/07/30 03:43:30;;;;;;;10.33;5.47;;;;;;;;;;5031082;28;20400;-48
2021/07/30 03:45:56;;;;;;;10.23;5.23;;;;;;;;;;5030838;28;20454;-48
2021/07/30 03:48:22;;;;;;;10.40;5.53;;;;;;;;;;5030745;28;20377;-48
2021/07/30 03:50:48;;;;;;;8.10;4.30;;;;;;;;;;5030477;28;20393;-48
2021/07/30 03:53:14;;;;;;;11.50;4.67;;;;;;;;;;5030584;28;20418;-49
2021/07/30 03:55:43;;;;;;;10.57;5.27;;;;;;;;;;5030836;28;20412;-48
2021/07/30 03:58:09;;;;;;;11.87;5.77;;;;;;;;;;5030733;28;20415;-48
2021/07/30 04:00:35;;;;;;;7.50;4.90;;;;;;;;;;5030455;28;20410;-48
2021/07/30 04:03:01;;;;;;;6.73;5.20;;;;;;;;;;5030527;28;20427;-48
2021/07/30 04:05:27;;;;;;;6.20;4.60;;;;;;;;;;5030597;28;20533;-48
2021/07/30 04:07:53;;;;;;;15.27;5.97;;;;;;;;;;5030503;28;20377;-48
2021/07/30 04:10:19;;;;;;;8.47;5.40;;;;;;;;;;5030352;28;20447;-48
2021/07/30 04:12:45;;;;;;;6.23;4.43;;;;;;;;;;5030597;28;20975;-48
2021/07/30 04:15:11;;;;;;;6.13;4.57;;;;;;;;;;5030596;28;20732;-48
2021/07/30 04:17:37;;;;;;;7.53;6.00;;;;;;;;;;5030693;28;20813;-48
2021/07/30 04:20:03;;;;;;;6.87;4.90;;;;;;;;;;5030439;28;20454;-48
2021/07/30 04:22:29;;;;;;;6.10;4.80;;;;;;;;;;5030888;28;20402;-48
2021/07/30 04:24:55;;;;;;;7.20;4.90;;;;;;;;;;5030875;28;20413;-48
2021/07/30 04:27:21;;;;;;;7.10;5.67;;;;;;;;;;5030781;28;20826;-48
2021/07/30 04:29:47;;;;;;;7.70;4.40;;;;;;;;;;5030122;28;20376;-48
2021/07/30 04:32:13;;;;;;;17.30;5.40;;;;;;;;;;5031987;28;20434;-48
2021/07/30 04:34:39;;;;;;;8.80;5.40;;;;;;;;;;5034284;28;20377;-47
2021/07/30 04:37:05;;;;;;;14.23;5.43;;;;;;;;;;5034115;28;20381;-49
2021/07/30 04:39:31;;;;;;;8.30;5.87;;;;;;;;;;5034579;28;20401;-48
2021/07/30 04:41:57;;;;;;;9.43;4.90;;;;;;;;;;5033919;28;20904;-49
2021/07/30 04:44:23;;;;;;;11.37;5.20;;;;;;;;;;5034115;28;20479;-48
2021/07/30 04:46:50;;;;;;;9.50;4.53;;;;;;;;;;5034069;28;20466;-48
2021/07/30 04:49:15;;;;;;;5.80;4.37;;;;;;;;;;5033998;28;20390;-49
2021/07/30 04:51:41;;;;;;;9.10;5.17;;;;;;;;;;5034178;28;20423;-48
2021/07/30 04:54:07;;;;;;;12.50;4.60;;;;;;;;;;5033874;28;20378;-48
2021/07/30 04:56:33;;;;;;;10.87;5.00;;;;;;;;;;5034012;28;20410;-48
2021/07/30 04:58:59;;;;;;;9.57;4.73;;;;;;;;;;5034015;28;20407;-49
2021/07/30 05:01:25;;;;;;;8.23;4.47;;;;;;;;;;5033504;28;20438;-49
2021/07/30 05:03:51;;;;;;;5.93;3.77;;;;;;;;;;5033704;28;20404;-49
2021/07/30 05:06:18;;;;;;;9.77;4.83;;;;;;;;;;5033550;28;20457;-50
2021/07/30 05:08:45;;;;;;;9.73;5.20;;;;;;;;;;5033588;28;20887;-48
2021/07/30 05:11:11;;;;;;;9.70;4.80;;;;;;;;;;5033267;28;20964;-48
2021/07/30 05:13:38;;;;;;;6.03;4.63;;;;;;;;;;5033634;28;20407;-49
2021/07/30 05:16:05;;;;;;;10.40;4.70;;;;;;;;;;5033966;28;20403;-48
2021/07/30 05:18:31;;;;;;;4.33;3.93;;;;;;;;;;5033346;28;20906;-49
2021/07/30 05:20:57;;;;;;;9.40;4.30;;;;;;;;;;5032974;28;20439;-48
2021/07/30 05:23:22;;;;;;;5.07;4.57;;;;;;;;;;5033433;28;20396;-49
2021/07/30 05:25:52;;;;;;;9.50;4.13;;;;;;;;;;5033401;28;20460;-48
2021/07/30 05:28:18;;;;;;;6.07;4.70;;;;;;;;;;5033321;28;20924;-48
2021/07/30 05:30:44;;;;;;;5.53;4.90;;;;;;;;;;5033321;28;20518;-48
2021/07/30 05:33:10;;;;;;;10.53;5.10;;;;;;;;;;5033074;28;20405;-49
2021/07/30 05:35:36;;;;;;;5.97;4.57;;;;;;;;;;5033373;28;20388;-48
2021/07/30 05:38:02;;;;;;;4.93;4.37;;;;;;;;;;5033232;28;20432;-49
2021/07/30 05:40:28;;;;;;;5.30;4.20;;;;;;;;;;5032922;28;20564;-48
2021/07/30 05:42:54;;;;;;;5.33;4.57;;;;;;;;;;5032939;28;20498;-48
2021/07/30 05:45:20;;;;;;;8.10;4.23;;;;;;;;;;5032986;28;20617;-48
2021/07/30 05:47:49;;;;;;;5.97;4.13;;;;;;;;;;5032791;28;20625;-48
2021/07/30 05:50:15;;;;;;;6.13;4.27;;;;;;;;;;5032761;28;20436;-48
2021/07/30 05:52:41;;;;;;;6.83;4.40;;;;;;;;;;5032909;28;20378;-48
2021/07/30 05:55:07;;;;;;;9.33;4.70;;;;;;;;;;5032844;28;20415;-49
2021/07/30 05:57:33;;;;;;;4.83;4.40;;;;;;;;;;5032795;28;20454;-48
2021/07/30 06:00:00;;;;;;;6.13;4.33;;;;;;;;;;5032292;28;20900;-48
2021/07/30 06:02:26;;;;;;;5.60;4.00;;;;;;;;;;5032409;28;20418;-48
2021/07/30 06:04:52;;;;;;;7.03;4.60;;;;;;;;;;5032594;28;20497;-48
2021/07/30 06:07:18;;;;;;;6.03;3.97;;;;;;;;;;5032575;28;20454;-48
2021/07/30 06:09:44;;;;;;;10.60;5.13;;;;;;;;;;5032187;28;20411;-49
2021/07/30 06:12:10;;;;;;;8.27;4.10;;;;;;;;;;5032481;28;20382;-48
2021/07/30 06:14:36;;;;;;;6.83;5.80;;;;;;;;;;5032582;28;20377;-48
2021/07/30 06:17:02;;;;;;;5.07;4.30;;;;;;;;;;5032543;28;20403;-48
2021/07/30 06:19:28;;;;;;;7.50;3.90;;;;;;;;;;5032526;28;20914;-48
2021/07/30 06:21:54;;;;;;;6.00;4.47;;;;;;;;;;5032326;28;20474;-48
2021/07/30 06:24:20;;;;;;;7.70;3.93;;;;;;;;;;5032475;28;20397;-48
2021/07/30 06:26:46;;;;;;;4.17;3.80;;;;;;;;;;5032521;28;20434;-48
2021/07/30 06:29:12;;;;;;;8.67;4.50;;;;;;;;;;5032654;28;20405;-48
2021/07/30 06:31:38;;;;;;;7.83;5.63;;;;;;;;;;5031925;28;20970;-48
2021/07/30 06:34:03;;;;;;;4.10;3.80;;;;;;;;;;5032173;28;20380;-48
2021/07/30 06:36:29;;;;;;;8.60;3.97;;;;;;;;;;5032117;28;20405;-48
2021/07/30 06:38:55;;;;;;;7.30;3.73;;;;;;;;;;5032105;28;20969;-48
2021/07/30 06:41:21;;;;;;;4.27;3.63;;;;;;;;;;5031633;28;20931;-47
2021/07/30 06:43:47;;;;;;;5.70;3.27;;;;;;;;;;5031936;28;20394;-48
2021/07/30 06:46:13;;;;;;;4.73;3.60;;;;;;;;;;5031607;28;20560;-49
2021/07/30 06:48:39;;;;;;;7.33;3.83;;;;;;;;;;5031789;28;20646;-48
2021/07/30 06:51:05;;;;;;;3.97;3.23;;;;;;;;;;5031473;28;20433;-48
2021/07/30 06:53:31;;;;;;;8.80;4.17;;;;;;;;;;5031848;28;20440;-48
2021/07/30 06:55:57;;;;;;;3.93;3.53;;;;;;;;;;5031282;28;20886;-48
2021/07/30 06:58:24;;;;;;;5.60;3.50;;;;;;;;;;5031668;28;20860;-48
2021/07/30 07:00:50;;;;;;;5.73;3.30;;;;;;;;;;5031192;28;20914;-49
2021/07/30 07:03:16;;;;;;;7.23;3.60;;;;;;;;;;5031478;28;20565;-49
2021/07/30 07:05:42;;;;;;;5.27;2.83;;;;;;;;;;5031058;28;20499;-49
2021/07/30 07:08:08;;;;;;;9.73;3.83;;;;;;;;;;5030894;28;20407;-48
2021/07/30 07:10:35;;;;;;;6.23;3.33;;;;;;;;;;5030505;28;20457;-48
2021/07/30 07:13:01;;;;;;;4.03;3.40;;;;;;;;;;5030848;28;20409;-48
2021/07/30 07:15:28;;;;;;;6.30;3.03;;;;;;;;;;5031155;28;20408;-48
2021/07/30 07:17:54;;;;;;;4.10;3.53;;;;;;;;;;5030695;28;20445;-49
2021/07/30 07:20:20;;;;;;;3.60;3.30;;;;;;;;;;5030638;28;20454;-49
2021/07/30 07:22:46;;;;;;;9.03;3.33;;;;;;;;;;5030614;28;20408;-48
2021/07/30 07:25:12;;;;;;;8.33;3.00;;;;;;;;;;5030543;28;20834;-50
2021/07/30 07:27:38;;;;;;;5.67;3.10;;;;;;;;;;5030392;28;20482;-49
2021/07/30 07:30:04;;;;;;;3.80;3.40;;;;;;;;;;5030612;28;20980;-48
2021/07/30 07:32:30;;;;;;;7.40;3.37;;;;;;;;;;5030514;28;20453;-48
2021/07/30 07:34:56;;;;;;;5.87;2.80;;;;;;;;;;5030460;28;20404;-48
2021/07/30 07:37:22;;;;;;;3.57;3.00;;;;;;;;;;5029259;28;20702;-49
2021/07/30 07:39:48;;;;;;;8.87;3.40;;;;;;;;;;5029944;28;20780;-48
2021/07/30 07:42:14;;;;;;;3.27;2.97;;;;;;;;;;5030446;28;20880;-49
2021/07/30 07:44:40;;;;;;;6.13;3.50;;;;;;;;;;5030168;28;20409;-48
2021/07/30 07:47:06;;;;;;;3.70;3.00;;;;;;;;;;5030241;28;20457;-48
2021/07/30 07:49:32;;;;;;;3.40;3.07;;;;;;;;;;5030061;28;20397;-49
2021/07/30 07:51:58;;;;;;;8.73;2.70;;;;;;;;;;5030230;28;20748;-49
2021/07/30 07:54:24;;;;;;;3.30;2.50;;;;;;;;;;5031989;28;20441;-49
2021/07/30 07:56:50;;;;;;;4.27;2.90;;;;;;;;;;5031447;28;20420;-48
2021/07/30 07:59:16;;;;;;;3.30;2.47;;;;;;;;;;5030467;28;20401;-49
2021/07/30 08:01:42;;;;;;;3.70;3.00;;;;;;;;;;5030187;28;20429;-48
2021/07/30 08:04:08;;;;;;;3.33;3.03;;;;;;;;;;5027013;28;20480;-48
2021/07/30 08:06:34;;;;;;;4.57;3.00;;;;;;;;;;5030810;28;20465;-49
2021/07/30 08:09:00;;;;;;;2.60;2.40;;;;;;;;;;5034797;28;20444;-48
2021/07/30 08:11:25;;;;;;;5.13;2.33;;;;;;;;;;5034311;28;20496;-49
2021/07/30 08:13:51;;;;;;;4.10;2.80;;;;;;;;;;5034625;28;20406;-49
2021/07/30 08:16:23;;;;;;;8.43;2.70;;;;;;;;;;5034734;28;20430;-50
2021/07/30 08:18:49;;;;;;;5.30;2.30;;;;;;;;;;5034672;28;20409;-50
2021/07/30 08:21:15;;;;;;;2.80;2.30;;;;;;;;;;5034173;28;20456;-49
2021/07/30 08:23:41;;;;;;;4.27;2.00;;;;;;;;;;5034068;28;20406;-49
2021/07/30 08:26:07;;;;;;;4.13;1.80;;;;;;;;;;5034264;28;20449;-48
2021/07/30 08:28:32;;;;;;;3.30;2.00;;;;;;;;;;5034471;28;20434;-49
2021/07/30 08:30:58;;;;;;;3.40;2.07;;;;;;;;;;5034040;28;20425;-49
2021/07/30 08:33:25;;;;;;;2.30;2.03;;;;;;;;;;5034329;28;20398;-48
2021/07/30 08:35:52;;;;;;;2.73;2.23;;;;;;;;;;5034140;28;20402;-49
2021/07/30 08:38:18;;;;;;;2.60;2.07;;;;;;;;;;5033707;28;20406;-50
2021/07/30 08:40:44;;;;;;;6.10;1.90;;;;;;;;;;5033268;28;20437;-49
2021/07/30 08:43:14;;;;;;;2.93;2.43;;;;;;;;;;5039840;28;20567;-49
2021/07/30 08:45:40;;;;;;;2.47;2.37;;;;;;;;;;5034692;28;20453;-52
2021/07/30 08:48:06;;;;;;;2.27;2.07;;;;;;;;;;5032747;28;20543;-49
2021/07/30 08:50:33;;;;;;;4.20;2.40;;;;;;;;;;5033650;28;20429;-50
2021/07/30 08:53:03;;;;;;;4.57;2.43;;;;;;;;;;5034893;28;20417;-48
2021/07/30 08:55:35;;;;;;;2.40;2.07;;;;;;;;;;5033849;28;20473;-49
2021/07/30 08:58:01;;;;;;;2.30;2.10;;;;;;;;;;5033759;28;20468;-50
2021/07/30 09:00:27;;;;;;;4.10;1.90;;;;;;;;;;5034585;28;20437;-48
2021/07/30 09:02:54;;;;;;;3.73;2.23;;;;;;;;;;5036710;28;20448;-48
2021/07/30 09:05:24;;;;;;;6.20;2.40;;;;;;;;;;5053606;28;20488;-48
2021/07/30 09:07:50;;;;;;;5.03;2.37;;;;;;;;;;5053654;28;20409;-47
2021/07/30 09:10:29;;;;;;;2.87;1.67;;;;;;;;;;5053322;28;20433;-48
2021/07/30 09:13:13;;;;;;;3.43;2.40;;;;;;;;;;5053508;28;20926;-50
2021/07/30 09:15:39;;;;;;;2.93;2.10;;;;;;;;;;5053418;28;20433;-48
2021/07/30 09:18:05;;;;;;;4.30;2.27;;;;;;;;;;5052961;28;20881;-48
2021/07/30 09:20:32;;;;;;;2.03;1.70;;;;;;;;;;5052863;28;20426;-48
2021/07/30 09:22:58;;;;;;;2.53;1.73;;;;;;;;;;5052945;28;20916;-48
2021/07/30 09:25:37;;;;;;;4.37;2.20;;;;;;;;;;5036321;28;20449;-49
2021/07/30 09:28:04;;;;;;;2.33;2.13;;;;;;;;;;5032249;28;20464;-48
2021/07/30 09:30:30;;;;;;;6.77;2.20;;;;;;;;;;5033216;28;20437;-48
2021/07/30 09:32:57;;;;;;;3.67;2.10;;;;;;;;;;5033033;28;20406;-48
2021/07/30 09:35:22;;;;;;;4.40;2.10;;;;;;;;;;5033290;28;20403;-47
2021/07/30 09:38:08;;;;;;;3.47;2.10;;;;;;;;;;5033075;28;20455;-47
2021/07/30 09:40:34;;;;;;;5.57;2.27;;;;;;;;;;5032354;28;20433;-47
2021/07/30 09:43:19;;;;;;;4.23;1.97;;;;;;;;;;5033182;28;20771;-47
2021/07/30 09:45:45;;;;;;;3.90;1.97;;;;;;;;;;5032833;28;21232;-49
2021/07/30 09:48:11;;;;;;;2.10;2.00;;;;;;;;;;5014961;28;20478;-48
2021/07/30 09:50:37;;;;;;;1.80;1.67;;;;;;;;;;5032192;28;20426;-48
2021/07/30 09:53:04;;;;;;;3.47;2.07;;;;;;;;;;5032364;28;20418;-47
2021/07/30 09:55:30;;;;;;;7.30;2.07;;;;;;;;;;5031908;28;20410;-48
2021/07/30 09:57:56;;;;;;;4.40;2.50;;;;;;;;;;5033035;28;20489;-50
2021/07/30 10:00:22;;;;;;;3.60;2.17;;;;;;;;;;5032434;28;20422;-48
2021/07/30 10:02:48;;;;;;;2.53;2.33;;;;;;;;;;5032499;28;20425;-48
2021/07/30 10:05:15;;;;;;;7.17;2.33;;;;;;;;;;5032135;28;20500;-49
2021/07/30 10:07:44;;;;;;;2.83;2.50;;;;;;;;;;5031917;28;20448;-48
2021/07/30 10:10:15;;;;;;;3.20;2.33;;;;;;;;;;5031284;28;20450;-48
2021/07/30 10:12:46;;;;;;;4.10;2.47;;;;;;;;;;5031693;28;20379;-49
2021/07/30 10:15:12;;;;;;;3.73;2.40;;;;;;;;;;5031828;28;20553;-50
2021/07/30 10:17:43;;;;;;;3.63;2.47;;;;;;;;;;5031529;28;20914;-46
2021/07/30 10:20:10;;;;;;;3.10;2.27;;;;;;;;;;5031897;28;20480;-48
2021/07/30 10:22:36;;;;;;;2.70;2.50;;;;;;;;;;5032070;28;20404;-47
2021/07/30 10:25:02;;;;;;;4.10;2.70;;;;;;;;;;5031979;28;20398;-48
2021/07/30 10:27:29;;;;;;;4.17;2.83;;;;;;;;;;5030832;28;20485;-47
2021/07/30 10:30:02;;;;;;;5.47;2.87;;;;;;;;;;5030800;28;20399;-50
2021/07/30 10:32:44;;;;;;;3.17;2.80;;;;;;;;;;5032091;28;20399;-48
2021/07/30 10:35:11;;;;;;;3.20;2.60;;;;;;;;;;5031915;28;20398;-47
2021/07/30 10:37:38;;;;;;;3.70;2.90;;;;;;;;;;5032544;28;20402;-47
2021/07/30 10:40:16;;;;;;;4.27;2.50;;;;;;;;;;5031849;28;20930;-48
2021/07/30 10:43:04;;;;;;;4.13;2.50;;;;;;;;;;5032284;28;20406;-48
2021/07/30 10:45:31;;;;;;;3.90;3.13;;;;;;;;;;5032060;28;21015;-48
2021/07/30 10:48:17;;;;;;;8.30;2.57;;;;;;;;;;5031984;28;20964;-50
2021/07/30 10:50:56;;;;;;;4.00;2.70;;;;;;;;;;5031934;28;20418;-47
2021/07/30 10:53:34;;;;;;;3.87;2.93;;;;;;;;;;5031814;28;20767;-48
2021/07/30 10:56:00;;;;;;;3.30;2.50;;;;;;;;;;5031511;28;21096;-48
2021/07/30 10:58:41;;;;;;;6.50;2.50;;;;;;;;;;5030066;28;20901;-49
2021/07/30 11:01:08;;;;;;;5.37;2.93;;;;;;;;;;5031287;28;20488;-48
2021/07/30 11:03:52;;;;;;;2.90;2.23;;;;;;;;;;5031403;28;20429;-48
2021/07/30 11:06:18;;;;;;;3.30;2.60;;;;;;;;;;5031800;28;20472;-48
2021/07/30 11:09:03;;;;;;;2.70;2.50;;;;;;;;;;5031803;28;20402;-49
2021/07/30 11:11:51;;;;;;;3.20;2.63;;;;;;;;;;5031138;28;20505;-50
2021/07/30 11:14:29;;;;;;;5.17;2.83;;;;;;;;;;5031711;28;20453;-50
2021/07/30 11:17:03;;;;;;;2.53;2.30;;;;;;;;;;5031122;28;20409;-49
2021/07/30 11:19:30;;;;;;;4.90;2.67;;;;;;;;;;5031404;28;20439;-48
2021/07/30 11:21:57;;;;;;;3.23;3.03;;;;;;;;;;5031276;28;20452;-49
2021/07/30 11:24:24;;;;;;;3.10;2.80;;;;;;;;;;5031056;28;20409;-50
2021/07/30 11:26:50;;;;;;;3.63;2.50;;;;;;;;;;5030993;28;20856;-48
2021/07/30 11:29:20;;;;;;;2.60;2.40;;;;;;;;;;5030918;28;20912;-48
2021/07/30 11:31:57;;;;;;;3.10;2.40;;;;;;;;;;5030689;28;20492;-52
2021/07/30 11:34:39;;;;;;;2.40;2.20;;;;;;;;;;5031012;28;20732;-49
2021/07/30 11:37:06;;;;;;;4.77;2.13;;;;;;;;;;5030644;28;20902;-50
2021/07/30 11:39:52;;;;;;;4.00;3.03;;;;;;;;;;5029227;28;20475;-49
2021/07/30 11:42:30;;;;;;;4.90;4.40;;;;;;;;;;5030422;28;20422;-49
2021/07/30 11:44:57;;;;;;;4.17;3.40;;;;;;;;;;5029374;28;20402;-51
2021/07/30 11:47:23;;;;;;;3.37;2.60;;;;;;;;;;5030753;28;20452;-50
2021/07/30 11:50:00;;;;;;;3.63;2.70;;;;;;;;;;5030688;28;20486;-51
2021/07/30 11:52:28;;;;;;;3.47;2.70;;;;;;;;;;5029420;28;20402;-51
2021/07/30 11:54:54;;;;;;;3.00;2.70;;;;;;;;;;5030030;28;20448;-49
2021/07/30 11:57:27;;;;;;;4.70;2.70;;;;;;;;;;5029940;28;20445;-51
2021/07/30 11:59:57;;;;;;;5.20;2.90;;;;;;;;;;5029130;28;20460;-49
2021/07/30 12:02:26;;;;;;;5.93;2.80;;;;;;;;;;5011194;28;20925;-49
2021/07/30 12:04:56;;;;;;;3.20;2.57;;;;;;;;;;5028866;28;20426;-49
2021/07/30 12:07:25;;;;;;;3.03;2.70;;;;;;;;;;5032677;28;20553;-48
2021/07/30 12:09:52;;;;;;;3.20;3.00;;;;;;;;;;5030167;28;20413;-48
2021/07/30 12:12:19;;;;;;;6.40;2.77;;;;;;;;;;5030507;28;20413;-48
2021/07/30 12:14:49;;;;;;;2.87;2.60;;;;;;;;;;5030433;28;20463;-49
2021/07/30 12:17:15;;;;;;;3.43;2.97;;;;;;;;;;5030254;28;20410;-48
2021/07/30 12:19:42;;;;;;;3.33;3.13;;;;;;;;;;5030166;28;20921;-48
2021/07/30 12:22:08;;;;;;;3.20;2.90;;;;;;;;;;5030215;28;20800;-48
2021/07/30 12:24:35;;;;;;;3.23;2.90;;;;;;;;;;5029779;28;20406;-48
2021/07/30 12:27:17;;;;;;;9.43;2.97;;;;;;;;;;5029761;28;20468;-48
2021/07/30 12:29:45;;;;;;;3.57;3.27;;;;;;;;;;5029960;28;20398;-49
2021/07/30 12:32:11;;;;;;;7.60;3.30;;;;;;;;;;5030446;28;20403;-48
2021/07/30 12:34:37;;;;;;;5.87;2.77;;;;;;;;;;5030299;28;20897;-48
2021/07/30 12:37:08;;;;;;;3.80;2.97;;;;;;;;;;5030188;28;20868;-48
2021/07/30 12:39:44;;;;;;;3.73;3.00;;;;;;;;;;5030251;28;20414;-49
2021/07/30 12:42:16;;;;;;;4.73;3.17;;;;;;;;;;5030235;28;20414;-48
2021/07/30 12:44:42;;;;;;;3.53;2.73;;;;;;;;;;5029947;28;20406;-48
2021/07/30 12:47:11;;;;;;;3.37;3.07;;;;;;;;;;5030086;28;20565;-47
2021/07/30 12:49:38;;;;;;;5.53;3.20;;;;;;;;;;5030120;28;20484;-48
2021/07/30 12:52:13;;;;;;;3.13;2.83;;;;;;;;;;5029960;28;20501;-49
2021/07/30 12:54:39;;;;;;;3.20;3.00;;;;;;;;;;5033847;28;20398;-49
2021/07/30 12:57:06;;;;;;;4.40;3.00;;;;;;;;;;5033493;28;20402;-48
2021/07/30 12:59:50;;;;;;;3.97;3.10;;;;;;;;;;5033587;28;20191;-50
2021/07/30 13:02:16;;;;;;;3.37;3.07;;;;;;;;;;5033589;28;20882;-50
2021/07/30 13:04:42;;;;;;;3.20;2.70;;;;;;;;;;5033661;28;20881;-49
2021/07/30 13:07:09;;;;;;;3.20;2.90;;;;;;;;;;5033406;28;20464;-50
2021/07/30 13:09:35;;;;;;;3.07;2.80;;;;;;;;;;5033479;28;20410;-49
2021/07/30 13:12:02;;;;;;;3.30;3.07;;;;;;;;;;5031774;28;20491;-50
2021/07/30 13:14:28;;;;;;;4.77;2.60;;;;;;;;;;5031527;28;20972;-50
2021/07/30 13:16:54;;;;;;;3.23;2.80;;;;;;;;;;5032780;28;20414;-48
2021/07/30 13:19:20;;;;;;;2.87;2.67;;;;;;;;;;5032695;28;20418;-48
2021/07/30 13:21:46;;;;;;;4.43;2.90;;;;;;;;;;5032794;28;20187;-48
2021/07/30 13:24:12;;;;;;;4.90;2.87;;;;;;;;;;5033092;28;20225;-49
2021/07/30 13:26:38;;;;;;;3.80;3.10;;;;;;;;;;5032982;28;20213;-49
2021/07/30 13:29:04;;;;;;;3.30;3.10;;;;;;;;;;5032373;28;20424;-49
2021/07/30 13:31:30;;;;;;;3.10;2.90;;;;;;;;;;5032294;28;20487;-50
2021/07/30 13:33:56;;;;;;;3.67;2.60;;;;;;;;;;5035013;28;20171;-50
2021/07/30 13:36:22;;;;;;;4.10;3.40;;;;;;;;;;5032362;28;20190;-48
2021/07/30 13:38:48;;;;;;;6.20;3.30;;;;;;;;;;5032974;28;20410;-49
2021/07/30 13:41:17;;;;;;;7.07;3.07;;;;;;;;;;5032616;28;20438;-48
2021/07/30 13:43:43;;;;;;;6.70;3.30;;;;;;;;;;5032785;28;20818;-48
2021/07/30 13:46:10;;;;;;;10.10;3.47;;;;;;;;;;5031986;28;20843;-49
2021/07/30 13:48:36;;;;;;;3.20;3.00;;;;;;;;;;5032914;28;20434;-48
2021/07/30 13:51:03;;;;;;;3.37;3.07;;;;;;;;;;5031239;28;20422;-47
2021/07/30 13:53:29;;;;;;;4.27;3.97;;;;;;;;;;5032304;28;20434;-48
2021/07/30 13:55:55;;;;;;;3.80;3.27;;;;;;;;;;5032800;28;20490;-48
2021/07/30 13:58:21;;;;;;;3.30;2.70;;;;;;;;;;5032555;28;20857;-49
2021/07/30 14:00:47;;;;;;;3.40;3.10;;;;;;;;;;5032449;28;20426;-49
2021/07/30 14:03:13;;;;;;;3.70;3.40;;;;;;;;;;5032534;28;20844;-49
2021/07/30 14:05:43;;;;;;;3.13;2.90;;;;;;;;;;5030989;28;20534;-48
2021/07/30 14:08:10;;;;;;;2.90;2.70;;;;;;;;;;5032794;28;20468;-49
2021/07/30 14:10:38;;;;;;;3.70;2.97;;;;;;;;;;5032297;28;20480;-48
2021/07/30 14:13:04;;;;;;;3.93;3.50;;;;;;;;;;5032290;28;20851;-48
2021/07/30 14:15:33;;;;;;;4.37;3.20;;;;;;;;;;5032639;28;20485;-49
2021/07/30 14:17:59;;;;;;;6.50;3.30;;;;;;;;;;5032364;28;20405;-49
2021/07/30 14:20:25;;;;;;;4.20;3.70;;;;;;;;;;5031755;28;20430;-48
2021/07/30 14:22:51;;;;;;;6.60;3.27;;;;;;;;;;5031400;28;20489;-48
2021/07/30 14:25:17;;;;;;;3.13;2.80;;;;;;;;;;5031101;28;20510;-49
2021/07/30 14:27:43;;;;;;;4.00;3.57;;;;;;;;;;5029105;28;20410;-48
2021/07/30 14:30:09;;;;;;;3.83;3.07;;;;;;;;;;5031631;28;20501;-48
2021/07/30 14:32:35;;;;;;;4.83;3.37;;;;;;;;;;5031687;28;20770;-49
2021/07/30 14:35:01;;;;;;;5.67;3.30;;;;;;;;;;5031964;28;20827;-48
2021/07/30 14:37:27;;;;;;;5.23;3.50;;;;;;;;;;5032101;28;20533;-48
2021/07/30 14:39:53;;;;;;;4.87;3.37;;;;;;;;;;5031754;28;20402;-48
2021/07/30 14:42:19;;;;;;;7.43;3.73;;;;;;;;;;5031956;28;20406;-48
2021/07/30 14:44:45;;;;;;;4.10;3.80;;;;;;;;;;5031840;28;20920;-50